createdAt,value
2023-03-31T00:00:58.230Z,98261.75
2023-03-31T00:03:26.598Z,98266.63
2023-03-31T00:05:58.793Z,98257.09
2023-03-31T00:08:30.866Z,98265.25
2023-03-31T00:11:01.367Z,98267.25
2023-03-31T00:13:30.599Z,98260.84
2023-03-31T00:15:59.510Z,98281.69
2023-03-31T00:18:27.938Z,98296.34
2023-03-31T00:21:07.176Z,98296.97
2023-03-31T00:23:35.646Z,98308.19
2023-03-31T00:26:03.870Z,98304.59
2023-03-31T00:28:31.985Z,98309.72
2023-03-31T00:31:02.385Z,98318.25
2023-03-31T00:33:30.803Z,98309.72
2023-03-31T00:36:06.466Z,98303.47
2023-03-31T00:38:35.216Z,98301.25
2023-03-31T00:41:04.222Z,98301.38
2023-03-31T00:43:34.459Z,98297.06
2023-03-31T00:46:08.837Z,98294.00
2023-03-31T00:48:39.325Z,98269.88
2023-03-31T00:51:09.129Z,98274.31
2023-03-31T00:53:38.719Z,98277.16
2023-03-31T00:56:10.544Z,98274.13
2023-03-31T00:58:43.892Z,98258.84
2023-03-31T01:01:17.339Z,98240.75
2023-03-31T01:03:46.913Z,98240.81
2023-03-31T01:06:19.957Z,98228.63
2023-03-31T01:08:51.244Z,98222.03
2023-03-31T01:11:22.130Z,98213.63
2023-03-31T01:13:52.747Z,98201.28
2023-03-31T01:16:20.724Z,98209.44
2023-03-31T01:18:49.846Z,98189.53
2023-03-31T01:22:05.616Z,98181.09
2023-03-31T01:25:01.783Z,98177.44
2023-03-31T01:27:54.172Z,98175.50
2023-03-31T01:30:42.781Z,98162.00
2023-03-31T01:33:35.756Z,98141.81
2023-03-31T01:36:27.791Z,98111.34
2023-03-31T01:39:33.951Z,98108.16
2023-03-31T01:42:11.307Z,98106.78
2023-03-31T01:44:46.408Z,98091.06
2023-03-31T01:47:23.158Z,98090.63
2023-03-31T01:49:58.626Z,98088.13
2023-03-31T01:52:33.790Z,98082.69
2023-03-31T01:55:09.057Z,98089.41
2023-03-31T01:57:42.338Z,98074.69
2023-03-31T02:00:13.596Z,98063.78
2023-03-31T02:02:47.455Z,98058.56
2023-03-31T02:07:52.906Z,98032.44
2023-03-31T02:10:22.916Z,98033.13
2023-03-31T02:12:54.846Z,98021.53
2023-03-31T02:15:27.730Z,98019.28
2023-03-31T02:18:00.150Z,98011.47
2023-03-31T02:20:32.658Z,98005.31
2023-03-31T02:23:01.176Z,97993.03
2023-03-31T02:25:37.316Z,97986.56
2023-03-31T02:28:11.231Z,97978.97
2023-03-31T02:30:47.187Z,97963.75
2023-03-31T02:33:16.704Z,97951.03
2023-03-31T02:35:44.733Z,97938.94
2023-03-31T02:38:12.783Z,97916.88
2023-03-31T02:40:41.995Z,97906.03
2023-03-31T02:43:11.909Z,97905.81
2023-03-31T02:45:45.250Z,97888.44
2023-03-31T02:48:18.854Z,97877.06
2023-03-31T02:51:16.587Z,97854.28
2023-03-31T02:53:58.479Z,97852.72
2023-03-31T02:56:41.898Z,97815.06
2023-03-31T02:59:22.058Z,97831.88
2023-03-31T03:02:02.559Z,97812.84
2023-03-31T03:04:49.754Z,97808.16
2023-03-31T03:07:26.826Z,97797.97
2023-03-31T03:10:03.621Z,97786.59
2023-03-31T03:12:39.189Z,97777.56
2023-03-31T03:15:12.075Z,97754.03
2023-03-31T03:17:43.672Z,97750.19
2023-03-31T03:20:13.968Z,97734.50
2023-03-31T03:22:42.225Z,97720.81
2023-03-31T03:25:12.848Z,97705.84
2023-03-31T03:27:41.661Z,97702.38
2023-03-31T03:30:13.265Z,97691.69
2023-03-31T03:32:41.513Z,97678.00
2023-03-31T03:35:10.532Z,97656.63
2023-03-31T03:37:38.512Z,97662.31
2023-03-31T03:40:08.300Z,97657.78
2023-03-31T03:42:36.725Z,97661.47
2023-03-31T03:45:04.972Z,97655.31
2023-03-31T03:47:34.361Z,97634.59
2023-03-31T03:50:02.304Z,97613.41
2023-03-31T03:52:30.350Z,97620.91
2023-03-31T03:54:58.270Z,97627.91
2023-03-31T03:57:26.469Z,97588.19
2023-03-31T03:59:54.523Z,97574.88
2023-03-31T04:02:23.631Z,97547.97
2023-03-31T04:04:54.491Z,97554.66
2023-03-31T04:07:22.716Z,97575.78
2023-03-31T04:09:50.875Z,97591.78
2023-03-31T04:12:18.888Z,97603.78
2023-03-31T04:14:46.863Z,97624.94
2023-03-31T04:17:16.002Z,97631.31
2023-03-31T04:19:44.118Z,97629.66
2023-03-31T04:22:15.599Z,97669.09
2023-03-31T04:24:46.981Z,97646.50
2023-03-31T04:27:17.468Z,97637.22
2023-03-31T04:29:55.024Z,97629.25
2023-03-31T04:32:23.234Z,97622.94
2023-03-31T04:34:51.761Z,97614.75
2023-03-31T04:37:21.082Z,97620.25
2023-03-31T04:39:50.713Z,97617.63
2023-03-31T04:42:18.674Z,97627.63
2023-03-31T04:44:46.529Z,97623.41
2023-03-31T04:47:14.507Z,97646.06
2023-03-31T04:49:42.400Z,97645.84
2023-03-31T04:52:10.392Z,97640.75
2023-03-31T04:54:39.711Z,97638.41
2023-03-31T04:57:07.700Z,97649.91
2023-03-31T04:59:35.618Z,97658.72
2023-03-31T05:02:03.579Z,97674.16
2023-03-31T05:04:31.600Z,97682.78
2023-03-31T05:06:59.818Z,97678.06
2023-03-31T05:09:27.707Z,97667.34
2023-03-31T05:11:58.155Z,97658.13
2023-03-31T05:14:26.277Z,97638.44
2023-03-31T05:16:54.326Z,97619.13
2023-03-31T05:19:22.242Z,97636.41
2023-03-31T05:21:50.332Z,97637.50
2023-03-31T05:24:18.886Z,97635.03
2023-03-31T05:26:52.532Z,97609.97
2023-03-31T05:29:22.020Z,97569.16
2023-03-31T05:31:50.105Z,97588.03
2023-03-31T05:34:20.679Z,97556.94
2023-03-31T05:36:50.603Z,97561.03
2023-03-31T05:39:18.766Z,97555.72
2023-03-31T05:41:46.666Z,97569.16
2023-03-31T05:44:14.802Z,97574.13
2023-03-31T05:46:44.393Z,97565.59
2023-03-31T05:49:12.592Z,97577.28
2023-03-31T05:51:40.554Z,97580.34
2023-03-31T05:54:08.895Z,97584.53
2023-03-31T05:56:36.971Z,97615.00
2023-03-31T05:59:05.451Z,97679.78
2023-03-31T06:01:33.897Z,97739.31
2023-03-31T06:04:03.357Z,97860.56
2023-03-31T06:06:34.030Z,97824.06
2023-03-31T06:09:03.428Z,97814.88
2023-03-31T06:11:31.596Z,97825.97
2023-03-31T06:13:59.587Z,97833.13
2023-03-31T06:16:29.077Z,97796.94
2023-03-31T06:18:57.211Z,97818.91
2023-03-31T06:21:26.666Z,97838.31
2023-03-31T06:23:56.212Z,97830.78
2023-03-31T06:26:24.143Z,97822.94
2023-03-31T06:28:52.122Z,97814.56
2023-03-31T06:31:21.689Z,97841.25
2023-03-31T06:33:50.721Z,97840.84
2023-03-31T06:36:20.397Z,97819.16
2023-03-31T06:38:50.636Z,97774.75
2023-03-31T06:41:20.775Z,97774.59
2023-03-31T06:43:48.848Z,97778.06
2023-03-31T06:46:17.569Z,97772.59
2023-03-31T06:48:46.118Z,97761.25
2023-03-31T06:51:14.712Z,97762.78
2023-03-31T06:53:42.747Z,97741.94
2023-03-31T06:56:12.260Z,97738.97
2023-03-31T06:58:40.180Z,97752.53
2023-03-31T07:01:08.549Z,97756.44
2023-03-31T07:03:36.952Z,97755.06
2023-03-31T07:06:05.236Z,97771.34
2023-03-31T07:08:33.192Z,97762.66
2023-03-31T07:11:03.829Z,97765.19
2023-03-31T07:13:33.435Z,97768.94
2023-03-31T07:16:01.353Z,97764.09
2023-03-31T07:18:34.410Z,97777.97
2023-03-31T07:21:05.614Z,97769.34
2023-03-31T07:23:35.049Z,97769.97
2023-03-31T07:26:03.031Z,97782.16
2023-03-31T07:28:31.262Z,97769.06
2023-03-31T07:31:00.574Z,97768.41
2023-03-31T07:33:28.562Z,97773.72
2023-03-31T07:36:10.885Z,97777.25
2023-03-31T07:38:41.293Z,97780.03
2023-03-31T07:41:11.977Z,97777.91
2023-03-31T07:43:39.996Z,97784.47
2023-03-31T07:46:15.931Z,97785.75
2023-03-31T07:48:44.037Z,97784.00
2023-03-31T07:51:11.974Z,97775.59
2023-03-31T07:53:39.863Z,97778.56
2023-03-31T07:56:08.187Z,97782.00
2023-03-31T07:58:36.507Z,97738.53
2023-03-31T08:01:05.354Z,97767.25
2023-03-31T08:03:37.270Z,97767.88
2023-03-31T08:06:05.741Z,97766.69
2023-03-31T08:08:33.977Z,97767.28
2023-03-31T08:11:01.909Z,97767.00
2023-03-31T08:13:29.850Z,97773.03
2023-03-31T08:15:57.819Z,97767.06
2023-03-31T08:18:26.246Z,97774.28
2023-03-31T08:20:55.582Z,97773.03
2023-03-31T08:23:23.551Z,97775.84
2023-03-31T08:25:51.500Z,97781.94
2023-03-31T08:31:05.210Z,97791.28
2023-03-31T08:33:33.406Z,97794.91
2023-03-31T08:36:06.505Z,97800.13
2023-03-31T08:38:34.610Z,97800.94
2023-03-31T08:41:03.428Z,97800.63
2023-03-31T08:43:34.826Z,97786.91
2023-03-31T08:46:04.248Z,97795.06
2023-03-31T08:48:37.647Z,97793.06
2023-03-31T08:51:14.139Z,97785.88
2023-03-31T08:53:48.440Z,97786.91
2023-03-31T08:56:19.596Z,97789.91
2023-03-31T09:01:56.808Z,97785.91
2023-03-31T09:05:09.587Z,97701.34
2023-03-31T09:07:51.296Z,97724.44
2023-03-31T09:10:30.328Z,97715.00
2023-03-31T09:13:06.134Z,97750.44
2023-03-31T09:15:40.538Z,97730.84
2023-03-31T09:18:19.114Z,97748.44
2023-03-31T09:20:52.756Z,97725.94
2023-03-31T09:23:29.279Z,97737.78
2023-03-31T09:25:59.109Z,97711.91
2023-03-31T09:28:32.229Z,97712.06
2023-03-31T09:31:00.987Z,97694.88
2023-03-31T09:33:33.599Z,97692.38
2023-03-31T09:36:02.088Z,97703.88
2023-03-31T09:38:31.650Z,97680.84
2023-03-31T09:41:01.390Z,97687.69
2023-03-31T09:43:31.639Z,97659.13
2023-03-31T09:46:09.102Z,97659.78
2023-03-31T09:48:39.036Z,97650.66
2023-03-31T09:51:11.466Z,97635.31
2023-03-31T09:53:45.282Z,97638.13
2023-03-31T09:56:14.168Z,97638.84
2023-03-31T09:58:43.729Z,97643.34
2023-03-31T10:01:13.904Z,97637.81
2023-03-31T10:03:50.959Z,97630.59
2023-03-31T10:06:19.647Z,97629.81
2023-03-31T10:08:55.561Z,97624.16
2023-03-31T10:11:24.282Z,97616.41
2023-03-31T10:13:59.100Z,97655.50
2023-03-31T10:16:31.432Z,97647.44
2023-03-31T10:19:14.763Z,97642.56
2023-03-31T10:21:47.692Z,97664.63
2023-03-31T10:24:20.808Z,97658.97
2023-03-31T10:26:50.385Z,97645.63
2023-03-31T10:29:25.690Z,97649.16
2023-03-31T10:31:54.283Z,97650.13
2023-03-31T13:36:34.207Z,97578.03
2023-03-31T13:39:49.933Z,97577.22
2023-03-31T13:42:58.403Z,97643.00
2023-03-31T13:45:49.396Z,97612.09
2023-03-31T13:48:31.149Z,97536.13
2023-03-31T13:51:27.849Z,97483.44
2023-03-31T13:54:13.081Z,97552.56
2023-03-31T13:57:14.348Z,97540.03
2023-03-31T14:00:13.278Z,97585.63
2023-03-31T14:03:29.025Z,97530.41
2023-03-31T14:06:10.070Z,97571.78
2023-03-31T14:08:57.303Z,97588.72
2023-03-31T14:11:27.231Z,97618.47
2023-03-31T14:14:06.040Z,97548.31
2023-03-31T14:16:40.838Z,97584.53
2023-03-31T14:19:43.937Z,97516.56
2023-03-31T14:22:20.594Z,97560.81
2023-03-31T14:24:56.328Z,97580.06
2023-03-31T14:27:50.431Z,97574.78
2023-03-31T14:30:33.719Z,97539.19
2023-03-31T14:33:21.834Z,97512.34
2023-03-31T14:35:58.132Z,97570.81
2023-03-31T14:38:33.388Z,97561.47
2023-03-31T14:41:04.817Z,97469.81
2023-03-31T14:43:35.821Z,97466.97
2023-03-31T14:46:41.640Z,97553.03
2023-03-31T14:49:44.627Z,97485.81
2023-03-31T14:56:39.493Z,97556.56
2023-03-31T14:59:18.624Z,97523.22
2023-03-31T15:04:58.419Z,97506.44
2023-03-31T15:07:27.992Z,97576.66
2023-03-31T15:09:56.188Z,97576.03
2023-03-31T15:12:24.703Z,97585.00
2023-03-31T15:14:56.106Z,97576.72
2023-03-31T15:17:29.146Z,97582.47
2023-03-31T15:19:58.843Z,97569.09
2023-03-31T15:22:28.310Z,97561.94
2023-03-31T15:24:56.983Z,97563.44
2023-03-31T15:27:37.420Z,97557.03
2023-03-31T15:30:09.145Z,97565.16
2023-03-31T15:32:41.059Z,97553.88
2023-03-31T15:35:22.430Z,97560.69
2023-03-31T15:37:53.272Z,97559.38
2023-03-31T15:40:24.432Z,97562.03
2023-03-31T15:43:06.391Z,97549.16
2023-03-31T15:45:53.242Z,97562.59
2023-03-31T15:48:28.512Z,97542.47
2023-03-31T15:51:02.696Z,97541.78
2023-03-31T15:53:33.510Z,97536.38
2023-03-31T15:56:02.033Z,97546.91
2023-03-31T15:59:00.395Z,97538.91
2023-03-31T16:01:35.078Z,97531.69
2023-03-31T16:04:10.008Z,97542.97
2023-03-31T16:06:45.316Z,97537.47
2023-03-31T16:09:17.608Z,97543.47
2023-03-31T16:11:49.428Z,97542.34
2023-03-31T16:14:31.355Z,97544.97
2023-03-31T16:17:03.049Z,97554.31
2023-03-31T16:19:40.216Z,97560.81
2023-03-31T16:22:09.907Z,97561.03
2023-03-31T16:24:37.996Z,97556.78
2023-03-31T16:27:09.553Z,97557.19
2023-03-31T16:29:39.520Z,97570.28
2023-03-31T16:32:09.934Z,97582.53
2023-03-31T16:34:53.488Z,97581.19
2023-03-31T16:37:21.977Z,97589.53
2023-03-31T16:39:50.064Z,97583.66
2023-03-31T16:42:18.424Z,97575.19
2023-03-31T16:44:52.893Z,97577.22
2023-03-31T16:47:35.052Z,97569.38
2023-03-31T16:50:11.700Z,97565.91
2023-03-31T16:52:40.407Z,97584.53
2023-03-31T16:55:24.855Z,97595.47
2023-03-31T16:58:04.996Z,97599.13
2023-03-31T17:00:37.847Z,97605.13
2023-03-31T17:03:11.832Z,97601.25
2023-03-31T17:05:43.906Z,97630.91
2023-03-31T17:08:17.003Z,97622.16
2023-03-31T17:10:54.131Z,97616.59
2023-03-31T17:16:47.401Z,97617.63
2023-03-31T17:22:35.258Z,97609.28
2023-03-31T17:25:09.724Z,97611.19
2023-03-31T17:27:37.980Z,97611.72
2023-03-31T17:30:10.153Z,97615.34
2023-03-31T17:32:43.005Z,97622.16
2023-03-31T17:35:13.584Z,97619.03
2023-03-31T17:37:44.803Z,97612.19
2023-03-31T17:40:15.604Z,97612.66
2023-03-31T17:46:01.537Z,97614.41
2023-03-31T17:48:41.521Z,97615.47
2023-03-31T17:51:47.092Z,97605.00
2023-03-31T17:54:24.675Z,97586.16
2023-03-31T17:56:52.890Z,97607.97
2023-03-31T17:59:21.333Z,97607.97
2023-03-31T18:01:50.239Z,97619.13
2023-03-31T18:04:18.584Z,97610.25
2023-03-31T18:06:48.714Z,97615.06
2023-03-31T18:09:18.310Z,97622.19
2023-03-31T18:11:47.504Z,97612.84
2023-03-31T18:14:15.569Z,97611.09
2023-03-31T18:16:43.640Z,97604.94
2023-03-31T18:19:11.769Z,97612.81
2023-03-31T18:21:39.943Z,97618.72
2023-03-31T18:24:09.894Z,97630.56
2023-03-31T18:26:42.693Z,97627.31
2023-03-31T18:29:10.799Z,97612.09
2023-03-31T18:31:39.404Z,97633.53
2023-03-31T18:34:07.749Z,97629.28
2023-03-31T18:36:37.482Z,97624.41
2023-03-31T18:39:05.708Z,97615.78
2023-03-31T18:41:34.232Z,97620.47
2023-03-31T18:44:04.358Z,97621.53
2023-03-31T18:46:32.925Z,97631.63
2023-03-31T18:49:01.211Z,97637.19
2023-03-31T18:51:29.964Z,97623.69
2023-03-31T18:53:59.557Z,97650.75
2023-03-31T18:56:29.680Z,97650.50
2023-03-31T18:59:00.048Z,97660.06
2023-03-31T19:01:47.892Z,97565.75
2023-03-31T19:04:16.287Z,97656.66
2023-03-31T19:06:44.379Z,97605.59
2023-03-31T19:09:15.881Z,97598.06
2023-03-31T19:12:08.895Z,97564.53
2023-03-31T19:15:57.211Z,97621.44
2023-03-31T19:19:13.233Z,97572.22
2023-03-31T19:21:46.356Z,97669.34
2023-03-31T19:24:33.733Z,97652.03
2023-03-31T19:27:25.630Z,97705.91
2023-03-31T19:30:05.403Z,97698.38
2023-03-31T19:32:37.116Z,97688.53
2023-03-31T19:39:27.072Z,97683.91
2023-03-31T19:42:11.405Z,97630.91
2023-03-31T19:44:49.657Z,97659.63
2023-03-31T19:47:18.199Z,97696.63
2023-03-31T19:49:46.688Z,97723.97
2023-03-31T19:52:17.881Z,97682.81
2023-03-31T19:54:48.169Z,97627.16
2023-03-31T19:57:43.292Z,97698.16
2023-03-31T20:00:18.367Z,97684.16
2023-03-31T20:02:49.769Z,97663.25
2023-03-31T20:05:47.349Z,97628.81
2023-03-31T20:09:07.308Z,97626.31
2023-03-31T20:11:42.787Z,97623.91
2023-03-31T20:14:17.587Z,97678.06
2023-03-31T20:16:49.288Z,97612.22
2023-03-31T20:19:18.172Z,97700.78
2023-03-31T20:22:07.651Z,97675.53
2023-03-31T20:24:40.919Z,97637.00
2023-03-31T20:27:54.306Z,97625.16
2023-03-31T20:30:22.610Z,97636.47
2023-03-31T20:32:53.380Z,97673.88
2023-03-31T20:36:06.453Z,97635.66
2023-03-31T20:38:40.271Z,97723.75
2023-03-31T20:44:50.722Z,97691.06
2023-03-31T20:47:40.606Z,97662.22
2023-03-31T20:50:09.883Z,97697.63
2023-03-31T20:52:42.541Z,97681.88
2023-03-31T21:04:24.824Z,97671.41
2023-03-31T21:13:40.135Z,97668.59
2023-03-31T21:16:46.311Z,97644.59
2023-03-31T21:19:30.858Z,97696.53
2023-03-31T21:22:53.329Z,97629.94
2023-03-31T21:28:02.747Z,97667.50
2023-03-31T21:30:32.899Z,97654.91
2023-03-31T21:33:13.004Z,97683.09
2023-03-31T21:35:56.657Z,97669.44
2023-03-31T21:38:38.243Z,97695.41
2023-03-31T21:42:10.692Z,97624.78
2023-03-31T21:44:47.866Z,97665.28
2023-03-31T21:47:16.074Z,97743.31
2023-03-31T21:49:44.192Z,97682.44
2023-03-31T21:52:17.893Z,97719.16
2023-03-31T21:54:48.038Z,97692.06
2023-03-31T22:03:33.179Z,97681.81
2023-03-31T22:06:02.687Z,97765.72
2023-03-31T22:08:32.948Z,97696.56
2023-03-31T22:11:01.928Z,97767.94
2023-03-31T22:13:31.161Z,97752.88
2023-03-31T22:16:02.131Z,97751.22
2023-03-31T22:18:31.259Z,97735.13
2023-03-31T22:21:01.125Z,97704.53
2023-03-31T22:23:29.388Z,97675.94
2023-03-31T22:25:59.675Z,97686.41
2023-03-31T22:28:36.000Z,97674.59
2023-03-31T22:31:04.149Z,97746.44
2023-03-31T22:33:32.275Z,97692.66
2023-03-31T22:36:00.621Z,97715.19
2023-03-31T22:38:29.032Z,97693.13
2023-03-31T22:40:58.603Z,97711.69
2023-03-31T22:43:27.357Z,97722.00
2023-03-31T22:45:55.403Z,97726.19
2023-03-31T22:48:23.623Z,97680.34
2023-03-31T22:50:51.673Z,97696.78
2023-03-31T22:53:19.761Z,97743.16
2023-03-31T22:55:53.730Z,97709.72
2023-03-31T22:58:24.267Z,97685.72
2023-03-31T23:01:01.790Z,97780.59
2023-03-31T23:03:30.324Z,97739.75
2023-03-31T23:05:58.474Z,97762.59
2023-03-31T23:08:26.579Z,97793.53
2023-03-31T23:10:58.852Z,97746.66
2023-03-31T23:13:29.101Z,97747.78
2023-03-31T23:15:57.237Z,97745.91
2023-03-31T23:18:25.853Z,97786.31
2023-03-31T23:20:53.941Z,97803.34
2023-03-31T23:23:22.075Z,97797.94
2023-03-31T23:25:50.253Z,97809.72
2023-03-31T23:28:18.622Z,97824.09
2023-03-31T23:30:56.759Z,97772.38
2023-03-31T23:33:25.724Z,97770.41
2023-03-31T23:35:54.147Z,97763.03
2023-03-31T23:38:22.563Z,97758.97
2023-03-31T23:40:50.821Z,97798.50
2023-03-31T23:43:18.877Z,97733.00
2023-03-31T23:45:47.037Z,97729.06
2023-03-31T23:48:17.037Z,97750.91
2023-03-31T23:50:45.468Z,97723.03
2023-03-31T23:53:14.113Z,97762.81
2023-03-31T23:55:42.315Z,97708.84
2023-03-31T23:58:10.563Z,97714.47
